Time;durP1;ratioP1;P1;durP2;ratioP2;P2;SDS_P1;SDS_P2;PMS_P1;PMS_P2;Temp;Humidity;BMP_temperature;BMP_pressure;BME280_temperature;BME280_humidity;BME280_pressure;Samples;Min_cycle;Max_cycle;Signal;HPM_P1;HPM_P2
2023/09/22 00:02:28;;;;;;;13.67;13.27;;;17.90;1.00;;;;;;4839362;29;20533;-81
2023/09/22 00:05:24;;;;;;;13.60;13.30;;;17.90;1.00;;;;;;4841563;29;20469;-81
2023/09/22 00:08:00;;;;;;;13.60;13.30;;;17.90;1.00;;;;;;4836781;29;20470;-83
2023/09/22 00:10:44;;;;;;;13.50;13.20;;;17.80;1.00;;;;;;4837045;29;21018;-81
2023/09/22 00:13:21;;;;;;;13.90;13.50;;;17.80;1.00;;;;;;4837773;29;20462;-81
2023/09/22 00:16:00;;;;;;;13.53;13.23;;;17.90;99.90;;;;;;4839149;29;20975;-83
2023/09/22 00:18:32;;;;;;;13.50;13.20;;;17.90;1.00;;;;;;4843851;29;20466;-81
2023/09/22 00:21:20;;;;;;;13.80;13.50;;;17.80;99.90;;;;;;4842886;29;20477;-80
2023/09/22 00:23:57;;;;;;;13.80;13.40;;;17.70;99.90;;;;;;4843185;29;20493;-83
2023/09/22 00:26:39;;;;;;;13.33;13.03;;;17.70;99.90;;;;;;4844648;29;20457;-79
2023/09/22 00:29:20;;;;;;;14.23;13.73;;;17.70;99.90;;;;;;4844026;29;20473;-81
2023/09/22 00:32:12;;;;;;;13.40;13.10;;;17.60;99.90;;;;;;4841473;29;21083;-80
2023/09/22 00:35:12;;;;;;;13.50;13.10;;;17.60;1.00;;;;;;4835817;29;20977;-81
2023/09/22 00:38:19;;;;;;;13.87;13.47;;;17.60;99.90;;;;;;4830214;29;20470;-79
2023/09/22 00:41:05;;;;;;;13.50;13.20;;;17.50;1.00;;;;;;4839535;29;20894;-81
2023/09/22 00:46:52;;;;;;;13.40;13.10;;;17.50;1.00;;;;;;4840415;29;20473;-81
2023/09/22 00:49:29;;;;;;;13.60;13.30;;;17.50;99.90;;;;;;4839745;29;20466;-81
2023/09/22 00:52:18;;;;;;;13.87;13.47;;;17.40;1.00;;;;;;4853858;29;20489;-79
2023/09/22 00:55:05;;;;;;;13.60;13.23;;;17.50;1.00;;;;;;4837858;29;20469;-81
2023/09/22 00:57:40;;;;;;;13.80;13.50;;;17.40;99.90;;;;;;4840701;29;20466;-82
2023/09/22 01:00:18;;;;;;;13.73;13.43;;;17.40;99.90;;;;;;4838563;29;20461;-79
2023/09/22 01:03:22;;;;;;;;;;;;;;;;;;;;;
2023/09/22 01:06:28;;;;;;;13.43;13.13;;;17.40;99.90;;;;;;4841916;29;20938;-80
2023/09/22 01:12:27;;;;;;;13.80;13.50;;;17.40;99.90;;;;;;4852455;29;20546;-82
2023/09/22 01:15:15;;;;;;;13.83;13.43;;;17.40;99.90;;;;;;4840887;29;20465;-81
2023/09/22 01:18:12;;;;;;;14.10;13.50;;;17.30;99.90;;;;;;4838956;29;20462;-81
2023/09/22 01:20:46;;;;;;;14.20;13.50;;;17.20;99.90;;;;;;4836591;29;20496;-83
2023/09/22 01:24:01;;;;;;;14.17;13.77;;;17.30;99.90;;;;;;4839151;29;20490;-80
2023/09/22 01:26:36;;;;;;;13.80;13.40;;;17.20;99.90;;;;;;4838176;29;20473;-82
2023/09/22 01:29:05;;;;;;;13.50;13.10;;;17.30;99.90;;;;;;4840786;29;20548;-81
2023/09/22 01:31:33;;;;;;;13.60;13.30;;;17.40;99.90;;;;;;4841857;29;20984;-82
2023/09/22 01:34:02;;;;;;;13.87;13.47;;;17.40;99.90;;;;;;4841005;29;20685;-81
2023/09/22 01:36:31;;;;;;;13.50;13.20;;;17.20;99.90;;;;;;4841906;29;20993;-81
2023/09/22 01:39:01;;;;;;;13.53;13.23;;;17.10;99.90;;;;;;4840026;29;21179;-81
2023/09/22 01:41:55;;;;;;;14.07;13.67;;;17.20;99.90;;;;;;4840828;29;20870;-82
2023/09/22 01:44:35;;;;;;;13.90;13.50;;;17.10;99.90;;;;;;4840385;29;20485;-81
2023/09/22 01:47:24;;;;;;;13.70;13.40;;;17.10;99.90;;;;;;4841152;29;20478;-81
2023/09/22 01:50:21;;;;;;;13.23;12.93;;;17.10;99.90;;;;;;4841853;29;20472;-82
2023/09/22 01:53:26;;;;;;;13.60;13.20;;;17.10;99.90;;;;;;4841931;29;20477;-83
2023/09/22 01:56:29;;;;;;;13.30;13.00;;;17.10;99.90;;;;;;4841316;29;20466;-82
2023/09/22 01:59:26;;;;;;;13.40;13.10;;;17.10;99.90;;;;;;4841196;29;20462;-84
2023/09/22 02:02:21;;;;;;;13.50;13.00;;;17.00;99.90;;;;;;4835293;29;20492;-81
2023/09/22 02:05:17;;;;;;;13.10;12.80;;;17.00;99.90;;;;;;4839779;29;20514;-82
2023/09/22 02:08:05;;;;;;;13.20;12.90;;;17.10;99.90;;;;;;4842258;29;20450;-81
2023/09/22 02:10:43;;;;;;;13.60;13.20;;;17.10;99.90;;;;;;4838113;29;20553;-79
2023/09/22 02:13:27;;;;;;;13.20;12.90;;;17.10;99.90;;;;;;4841653;29;20522;-81
2023/09/22 02:15:59;;;;;;;13.13;12.83;;;17.00;99.90;;;;;;4854542;29;20472;-79
2023/09/22 02:18:27;;;;;;;13.50;13.20;;;17.00;99.90;;;;;;4839171;29;20838;-80
2023/09/22 02:20:56;;;;;;;13.10;12.70;;;17.00;99.90;;;;;;4837790;29;20489;-80
2023/09/22 02:23:27;;;;;;;13.67;13.17;;;17.00;99.90;;;;;;4841670;29;21527;-81
2023/09/22 02:25:55;;;;;;;13.13;12.83;;;17.00;99.90;;;;;;4840781;29;20556;-82
2023/09/22 02:28:24;;;;;;;13.30;13.00;;;16.90;99.90;;;;;;4841094;29;20544;-82
2023/09/22 02:30:53;;;;;;;13.13;12.77;;;16.80;99.90;;;;;;4842344;29;21241;-78
2023/09/22 02:33:21;;;;;;;12.80;12.50;;;16.90;99.90;;;;;;4843290;29;20470;-81
2023/09/22 02:35:49;;;;;;;12.90;12.60;;;16.70;99.90;;;;;;4838600;29;20518;-82
2023/09/22 02:38:22;;;;;;;13.20;12.90;;;16.70;99.90;;;;;;4842976;29;20462;-82
2023/09/22 02:41:06;;;;;;;13.53;13.23;;;16.70;99.90;;;;;;4849370;29;20485;-81
2023/09/22 02:43:51;;;;;;;13.50;13.10;;;16.80;99.90;;;;;;4846614;29;20490;-80
2023/09/22 02:46:32;;;;;;;13.40;13.10;;;16.80;99.90;;;;;;4837403;29;20468;-82
2023/09/22 02:49:23;;;;;;;13.40;13.10;;;16.80;99.90;;;;;;4842108;29;20569;-83
2023/09/22 02:52:14;;;;;;;13.20;12.90;;;16.80;99.90;;;;;;4839419;29;20490;-82
2023/09/22 02:55:11;;;;;;;13.10;12.80;;;16.90;99.90;;;;;;4837900;29;20446;-81
2023/09/22 02:57:42;;;;;;;13.40;12.90;;;16.80;99.90;;;;;;4839268;29;20472;-81
2023/09/22 03:00:14;;;;;;;13.30;13.00;;;16.80;99.90;;;;;;4838776;29;20457;-80
2023/09/22 03:02:43;;;;;;;13.70;13.40;;;16.80;99.90;;;;;;4838056;29;20462;-79
2023/09/22 03:05:14;;;;;;;13.37;13.07;;;16.70;99.90;;;;;;4839792;29;20536;-80
2023/09/22 03:07:43;;;;;;;13.33;13.03;;;16.60;99.90;;;;;;4839328;29;20517;-81
2023/09/22 03:10:11;;;;;;;13.10;12.80;;;16.60;99.90;;;;;;4839939;29;20458;-81
2023/09/22 03:12:40;;;;;;;13.63;13.23;;;16.80;99.90;;;;;;4836370;29;20493;-80
2023/09/22 03:15:09;;;;;;;13.87;13.37;;;16.80;99.90;;;;;;4836804;29;20466;-79
2023/09/22 03:17:41;;;;;;;13.00;12.70;;;16.80;99.90;;;;;;4839622;29;20549;-79
2023/09/22 03:20:12;;;;;;;13.23;12.93;;;16.80;99.90;;;;;;4840369;29;20454;-80
2023/09/22 03:22:42;;;;;;;13.67;13.27;;;16.80;99.90;;;;;;4839762;29;20522;-81
2023/09/22 03:25:11;;;;;;;13.50;13.20;;;16.80;1.00;;;;;;4839442;29;20486;-80
2023/09/22 03:27:40;;;;;;;13.67;13.20;;;16.60;1.00;;;;;;4843422;29;20818;-79
2023/09/22 03:30:10;;;;;;;13.23;12.70;;;16.60;1.00;;;;;;4840707;29;20925;-82
2023/09/22 03:33:01;;;;;;;13.77;13.40;;;16.80;1.00;;;;;;4843873;29;20498;-82
2023/09/22 03:35:48;;;;;;;13.67;13.27;;;16.70;1.00;;;;;;4838930;29;20469;-81
2023/09/22 03:38:49;;;;;;;13.40;13.10;;;16.70;1.00;;;;;;4841797;29;20592;-82
2023/09/22 03:41:54;;;;;;;13.90;13.40;;;16.60;37.90;;;;;;4853615;29;20992;-80
2023/09/22 03:48:08;;;;;;;13.50;13.10;;;16.70;1.00;;;;;;4835337;29;21143;-80
2023/09/22 03:50:53;;;;;;;13.87;13.17;;;16.60;99.90;;;;;;4836464;29;20917;-80
2023/09/22 03:53:35;;;;;;;13.37;12.97;;;16.70;99.90;;;;;;4836373;29;20552;-79
2023/09/22 03:56:18;;;;;;;13.20;12.90;;;16.70;96.00;;;;;;4835915;29;20466;-79
2023/09/22 03:59:14;;;;;;;13.53;13.13;;;16.70;99.90;;;;;;4834076;29;20983;-79
2023/09/22 04:02:03;;;;;;;13.60;13.10;;;16.70;99.90;;;;;;4832922;29;21102;-80
2023/09/22 04:04:35;;;;;;;13.53;13.13;;;16.80;1.00;;;;;;4836865;29;20512;-78
2023/09/22 04:07:06;;;;;;;13.30;12.90;;;16.70;28.00;;;;;;4837303;29;20454;-80
2023/09/22 04:09:40;;;;;;;14.00;13.50;;;16.70;99.90;;;;;;4835269;29;20473;-80
2023/09/22 04:12:32;;;;;;;13.97;13.57;;;16.70;1.00;;;;;;4835795;29;20485;-79
2023/09/22 04:16:01;;;;;;;13.53;13.23;;;16.70;1.00;;;;;;4833428;29;20478;-80
2023/09/22 04:19:04;;;;;;;13.60;13.20;;;16.60;24.50;;;;;;4831204;29;20474;-80
2023/09/22 04:22:16;;;;;;;13.90;13.50;;;16.70;28.40;;;;;;4837326;29;20497;-79
2023/09/22 04:25:08;;;;;;;13.50;13.20;;;16.70;1.00;;;;;;4812888;29;20500;-78
2023/09/22 04:28:10;;;;;;;13.80;13.40;;;16.70;1.00;;;;;;4838941;29;20980;-81
2023/09/22 04:31:12;;;;;;;13.97;13.47;;;16.70;1.00;;;;;;4837901;29;20489;-82
2023/09/22 04:33:52;;;;;;;13.90;13.50;;;16.60;1.00;;;;;;4834645;29;20825;-76
2023/09/22 04:36:22;;;;;;;13.80;13.50;;;16.70;99.90;;;;;;4835763;29;20466;-79
2023/09/22 04:38:52;;;;;;;13.80;13.40;;;16.60;1.00;;;;;;4838156;29;20469;-81
2023/09/22 04:41:23;;;;;;;13.60;13.20;;;16.70;1.00;;;;;;4838281;29;20556;-76
2023/09/22 04:43:54;;;;;;;14.10;13.70;;;16.70;1.00;;;;;;4832615;29;21037;-76
2023/09/22 04:46:22;;;;;;;13.97;13.50;;;16.60;1.00;;;;;;4834860;29;20561;-77
2023/09/22 04:48:51;;;;;;;13.83;13.53;;;16.60;1.00;;;;;;4834743;29;20493;-76
2023/09/22 04:51:19;;;;;;;14.00;13.60;;;16.60;1.00;;;;;;4835127;29;20478;-80
2023/09/22 04:53:48;;;;;;;14.37;13.70;;;16.60;1.00;;;;;;4833325;29;20474;-79
2023/09/22 04:56:24;;;;;;;14.40;14.00;;;16.60;1.00;;;;;;4834987;29;20565;-80
2023/09/22 04:59:40;;;;;;;14.17;13.87;;;16.60;1.00;;;;;;4836433;29;20474;-81
2023/09/22 05:02:56;;;;;;;;;;;;;;;;;;;;;
2023/09/22 05:06:21;;;;;;;14.00;13.70;;;16.70;99.90;;;;;;4841083;29;20498;-82
2023/09/22 05:09:40;;;;;;;14.10;13.70;;;16.70;99.90;;;;;;4829321;29;20983;-81
2023/09/22 05:16:06;;;;;;;13.97;13.67;;;16.70;99.90;;;;;;4827895;29;20470;-82
2023/09/22 05:19:13;;;;;;;14.50;14.10;;;16.70;1.00;;;;;;4839124;29;20473;-82
2023/09/22 05:22:03;;;;;;;14.00;13.60;;;16.60;1.00;;;;;;4836779;29;20991;-84
2023/09/22 05:25:01;;;;;;;14.10;13.70;;;16.80;1.00;;;;;;4840215;29;20476;-84
2023/09/22 05:28:11;;;;;;;;;;;;;;;;;;;;;
2023/09/22 05:30:51;;;;;;;14.67;14.27;;;16.80;99.90;;;;;;4837306;29;20585;-82
2023/09/22 05:34:33;;;;;;;14.50;14.10;;;16.70;99.90;;;;;;4831300;29;21017;-82
2023/09/22 05:40:27;;;;;;;14.27;13.97;;;16.70;99.90;;;;;;4839695;29;20580;-81
2023/09/22 05:43:56;;;;;;;14.60;14.30;;;16.60;99.90;;;;;;4840411;29;20549;-82
2023/09/22 05:50:20;;;;;;;14.80;14.40;;;16.70;99.90;;;;;;4835909;29;20471;-84
2023/09/22 05:56:40;;;;;;;14.50;14.10;;;16.70;1.00;;;;;;4838368;29;20465;-82
2023/09/22 05:59:32;;;;;;;14.50;14.00;;;16.80;99.90;;;;;;4839938;29;20568;-84
2023/09/22 06:02:26;;;;;;;14.20;13.90;;;16.70;99.90;;;;;;4835344;29;20535;-81
2023/09/22 06:05:43;;;;;;;14.40;14.00;;;16.60;99.90;;;;;;4835925;29;20492;-83
2023/09/22 06:08:33;;;;;;;14.43;13.97;;;16.60;99.90;;;;;;4838247;29;20468;-82
2023/09/22 06:11:43;;;;;;;14.70;14.30;;;16.70;1.00;;;;;;4837622;29;20481;-80
2023/09/22 06:14:50;;;;;;;14.70;14.30;;;16.70;1.00;;;;;;4840452;29;21220;-83
2023/09/22 06:18:08;;;;;;;14.67;14.30;;;16.60;99.90;;;;;;4841830;29;20451;-83
2023/09/22 06:20:44;;;;;;;14.37;13.90;;;16.60;1.00;;;;;;4839341;29;21272;-83
2023/09/22 06:23:49;;;;;;;14.77;14.30;;;16.50;1.00;;;;;;4855929;29;20458;-81
2023/09/22 06:26:49;;;;;;;15.10;14.50;;;16.50;1.00;;;;;;4839393;29;20759;-80
2023/09/22 06:30:03;;;;;;;14.40;14.00;;;16.60;39.00;;;;;;4836401;29;20472;-83
2023/09/22 06:33:13;;;;;;;14.87;14.20;;;16.60;1.00;;;;;;4841492;29;20449;-82
2023/09/22 06:36:05;;;;;;;14.60;14.20;;;16.60;1.00;;;;;;4836278;29;20446;-79
2023/09/22 06:39:11;;;;;;;14.37;14.07;;;16.50;1.00;;;;;;4779937;29;20511;-82
2023/09/22 06:45:23;;;;;;;14.87;14.57;;;16.60;90.50;;;;;;4782071;29;20464;-81
2023/09/22 06:48:12;;;;;;;14.70;14.30;;;16.60;1.00;;;;;;4800639;29;20499;-81
2023/09/22 06:51:30;;;;;;;14.60;14.20;;;16.70;43.50;;;;;;4798586;29;20488;-83
2023/09/22 06:54:15;;;;;;;14.73;14.33;;;16.60;1.00;;;;;;4783066;29;20472;-81
2023/09/22 06:56:46;;;;;;;14.40;14.00;;;16.70;99.90;;;;;;4794007;29;20478;-81
2023/09/22 06:59:18;;;;;;;14.30;14.00;;;16.70;1.00;;;;;;4794617;29;20490;-83
2023/09/22 07:01:46;;;;;;;14.90;14.43;;;16.70;26.10;;;;;;4799011;29;20503;-80
2023/09/22 07:04:14;;;;;;;14.97;14.47;;;16.70;99.90;;;;;;4798647;29;20461;-80
2023/09/22 07:06:44;;;;;;;14.43;14.03;;;16.60;1.00;;;;;;4797549;29;20491;-80
2023/09/22 07:09:12;;;;;;;15.27;14.47;;;16.60;99.90;;;;;;4793290;29;20476;-81
2023/09/22 07:11:57;;;;;;;14.40;14.00;;;16.50;60.30;;;;;;4795446;29;21044;-80
2023/09/22 07:15:00;;;;;;;14.63;14.23;;;16.60;99.90;;;;;;4816507;29;20567;-80
2023/09/22 07:17:34;;;;;;;14.63;14.17;;;16.60;61.00;;;;;;4818435;29;20580;-82
2023/09/22 07:20:09;;;;;;;14.33;13.93;;;16.70;99.90;;;;;;4842570;29;20503;-83
2023/09/22 07:22:49;;;;;;;14.37;13.87;;;16.70;99.90;;;;;;4847416;29;20557;-83
2023/09/22 07:25:26;;;;;;;14.80;14.20;;;16.60;99.90;;;;;;4814452;29;20556;-81
2023/09/22 07:28:00;;;;;;;14.47;14.00;;;16.60;99.90;;;;;;4848552;29;20525;-82
2023/09/22 07:30:30;;;;;;;14.50;14.10;;;16.60;99.90;;;;;;4844028;29;20513;-81
2023/09/22 07:32:58;;;;;;;14.73;14.07;;;16.60;1.00;;;;;;4842010;29;20474;-82
2023/09/22 07:35:26;;;;;;;14.80;14.00;;;16.60;99.90;;;;;;4844490;29;21416;-82
2023/09/22 07:38:00;;;;;;;15.27;14.57;;;16.50;91.10;;;;;;4844721;29;20462;-80
2023/09/22 07:41:01;;;;;;;14.40;14.00;;;16.50;99.90;;;;;;4843862;29;20517;-82
2023/09/22 07:44:00;;;;;;;14.30;14.00;;;16.60;99.90;;;;;;4844047;29;20501;-82
2023/09/22 07:49:42;;;;;;;15.37;14.87;;;16.70;99.90;;;;;;4837705;29;20549;-81
2023/09/22 07:52:26;;;;;;;14.60;14.20;;;16.80;19.50;;;;;;4843985;29;20604;-84
2023/09/22 07:55:19;;;;;;;14.50;14.20;;;16.70;25.00;;;;;;4842663;29;20458;-82
2023/09/22 07:58:24;;;;;;;14.40;14.00;;;16.80;1.00;;;;;;4843768;29;20465;-80
2023/09/22 08:01:12;;;;;;;14.07;13.67;;;16.80;9.90;;;;;;4842858;29;20489;-81
2023/09/22 08:07:17;;;;;;;14.50;14.20;;;16.80;58.60;;;;;;4836097;29;20505;-79
2023/09/22 08:10:01;;;;;;;14.57;14.17;;;16.80;99.90;;;;;;4844672;29;20483;-80
2023/09/22 08:13:09;;;;;;;14.43;14.00;;;16.80;99.90;;;;;;4840867;29;20494;-83
2023/09/22 08:19:26;;;;;;;14.50;14.10;;;17.00;1.00;;;;;;4840492;29;20462;-83
2023/09/22 08:22:21;;;;;;;14.40;14.10;;;17.00;99.90;;;;;;4841143;29;21083;-80
2023/09/22 08:24:55;;;;;;;14.73;14.33;;;17.00;99.90;;;;;;4837984;29;20454;-81
2023/09/22 08:27:32;;;;;;;14.83;14.40;;;17.10;99.90;;;;;;4841562;29;21013;-82
2023/09/22 08:30:16;;;;;;;15.20;14.80;;;17.10;99.90;;;;;;4852196;29;20485;-82
2023/09/22 08:33:26;;;;;;;15.10;14.53;;;17.10;99.90;;;;;;4840779;29;20472;-84
2023/09/22 08:36:46;;;;;;;14.60;14.20;;;17.20;99.90;;;;;;4838120;29;20454;-82
2023/09/22 08:39:44;;;;;;;14.70;14.30;;;17.20;1.00;;;;;;4841094;29;20568;-84
2023/09/22 08:42:39;;;;;;;15.40;14.90;;;17.30;1.00;;;;;;4856378;29;20678;-83
2023/09/22 08:45:28;;;;;;;15.00;14.40;;;17.30;1.00;;;;;;4840464;29;20498;-83
2023/09/22 08:48:08;;;;;;;15.00;14.60;;;17.30;1.00;;;;;;4846089;29;20501;-83
2023/09/22 08:50:47;;;;;;;15.20;14.70;;;17.30;42.50;;;;;;4843745;29;20488;-82
2023/09/22 08:54:03;;;;;;;14.87;14.50;;;17.30;1.00;;;;;;4845885;29;20524;-82
2023/09/22 08:56:49;;;;;;;15.10;14.70;;;17.30;1.00;;;;;;4845516;29;21128;-82
2023/09/22 08:59:32;;;;;;;15.27;14.77;;;17.30;1.00;;;;;;4844731;29;20458;-80
2023/09/22 09:02:42;;;;;;;14.63;14.23;;;17.30;92.70;;;;;;4838483;29;20477;-80
2023/09/22 09:05:20;;;;;;;14.77;14.37;;;17.20;1.00;;;;;;4845957;29;20560;-81
2023/09/22 09:07:51;;;;;;;15.20;14.70;;;17.20;99.90;;;;;;4848154;29;20487;-79
2023/09/22 09:10:31;;;;;;;14.90;14.50;;;17.20;99.90;;;;;;4846856;29;20496;-80
2023/09/22 09:13:06;;;;;;;15.00;14.60;;;17.20;1.00;;;;;;4846104;29;20466;-79
2023/09/22 09:15:43;;;;;;;14.90;14.50;;;17.30;93.50;;;;;;4845826;29;20551;-81
2023/09/22 09:18:16;;;;;;;15.37;14.90;;;17.20;1.00;;;;;;4840038;29;20544;-81
2023/09/22 09:20:46;;;;;;;15.53;15.00;;;17.20;99.90;;;;;;4847291;29;20481;-79
2023/09/22 09:23:23;;;;;;;15.03;14.47;;;17.20;1.00;;;;;;4845099;29;20474;-80
2023/09/22 09:25:54;;;;;;;15.00;14.50;;;17.20;1.00;;;;;;4843880;29;20473;-79
2023/09/22 09:32:38;;;;;;;14.43;14.10;;;17.10;1.00;;;;;;4832766;29;20481;-79
2023/09/22 09:51:41;;;;;;;15.20;14.80;;;17.20;1.00;;;;;;4859714;24;21059;-79
2023/09/22 09:54:35;;;;;;;14.90;14.50;;;17.20;1.00;;;;;;4861874;29;20552;-80
2023/09/22 09:57:53;;;;;;;14.80;14.40;;;17.30;1.00;;;;;;4862506;29;20601;-83
2023/09/22 10:05:46;;;;;;;14.80;14.40;;;17.30;99.90;;;;;;4860800;29;20477;-82
2023/09/22 10:08:37;;;;;;;14.67;14.27;;;17.40;99.90;;;;;;4863123;29;20488;-79
2023/09/22 10:11:29;;;;;;;15.07;14.63;;;17.50;99.90;;;;;;4859935;29;20529;-81
2023/09/22 10:14:38;;;;;;;15.30;14.90;;;17.60;99.90;;;;;;4859744;29;20698;-81
2023/09/22 10:17:40;;;;;;;14.70;14.40;;;17.70;91.00;;;;;;4858030;29;20453;-82
2023/09/22 10:26:32;;;;;;;15.00;14.60;;;18.30;1.00;;;;;;4854056;29;20567;-80
2023/09/22 10:29:53;;;;;;;;;;;;;;;;;;;;;
2023/09/22 10:35:40;;;;;;;15.40;15.00;;;18.70;1.00;;;;;;4870982;29;20498;-80
2023/09/22 10:38:10;;;;;;;15.07;14.67;;;18.70;1.00;;;;;;4862556;29;20495;-81
2023/09/22 10:40:40;;;;;;;15.60;15.13;;;18.80;1.00;;;;;;4856486;29;20468;-79
2023/09/22 10:43:10;;;;;;;15.13;14.73;;;18.90;1.00;;;;;;4858970;29;20963;-82
2023/09/22 10:45:38;;;;;;;15.47;15.07;;;18.90;1.00;;;;;;4849822;29;20493;-80
2023/09/22 10:48:06;;;;;;;15.73;15.33;;;18.90;1.00;;;;;;4857691;29;20489;-78
2023/09/22 10:50:35;;;;;;;15.80;15.30;;;19.00;1.00;;;;;;4853830;29;20874;-79
2023/09/22 10:53:06;;;;;;;15.10;14.70;;;18.80;99.90;;;;;;4860899;29;20464;-81
2023/09/22 10:55:36;;;;;;;15.40;14.90;;;18.60;1.00;;;;;;4870846;29;20457;-79
2023/09/22 10:58:06;;;;;;;15.40;14.90;;;18.60;1.00;;;;;;4858772;29;20461;-78
2023/09/22 11:00:42;;;;;;;15.10;14.70;;;18.60;1.00;;;;;;4853867;29;20475;-81
2023/09/22 11:03:12;;;;;;;15.40;15.00;;;18.80;99.90;;;;;;4856346;29;20469;-80
2023/09/22 11:05:43;;;;;;;15.10;14.70;;;18.90;99.90;;;;;;4854947;29;20472;-80
2023/09/22 11:08:13;;;;;;;15.10;14.70;;;18.90;99.90;;;;;;4854256;29;20500;-80
2023/09/22 11:10:43;;;;;;;15.30;14.90;;;19.00;99.90;;;;;;4856845;29;20615;-79
2023/09/22 11:13:14;;;;;;;15.20;14.80;;;19.20;99.90;;;;;;4853638;29;20465;-80
2023/09/22 11:15:54;;;;;;;15.50;14.90;;;19.10;99.90;;;;;;4854881;29;20457;-79
2023/09/22 11:18:25;;;;;;;15.10;14.70;;;19.10;99.90;;;;;;4859311;29;20506;-78
2023/09/22 11:20:57;;;;;;;15.00;14.70;;;19.00;99.90;;;;;;4860622;29;20485;-80
2023/09/22 11:23:27;;;;;;;15.43;14.83;;;18.70;99.90;;;;;;4853392;29;20470;-82
2023/09/22 11:26:00;;;;;;;14.73;14.33;;;18.60;99.90;;;;;;4852873;29;20499;-82
2023/09/22 11:28:28;;;;;;;14.53;14.20;;;18.60;99.90;;;;;;4858427;29;21160;-81
2023/09/22 11:31:06;;;;;;;15.30;14.80;;;18.50;99.90;;;;;;4859474;29;20821;-81
2023/09/22 11:33:36;;;;;;;15.17;14.77;;;18.40;99.90;;;;;;4859107;29;20462;-81
2023/09/22 11:36:05;;;;;;;14.37;14.07;;;18.50;99.90;;;;;;4859095;29;20454;-83
2023/09/22 11:38:39;;;;;;;14.50;14.10;;;18.50;99.90;;;;;;4858535;29;20544;-80
2023/09/22 11:41:11;;;;;;;14.93;14.50;;;18.70;99.90;;;;;;4860036;29;20485;-82
2023/09/22 11:43:42;;;;;;;15.30;14.60;;;18.80;99.90;;;;;;4861890;29;20530;-81
2023/09/22 11:46:15;;;;;;;14.73;14.40;;;18.80;99.90;;;;;;4856133;29;20457;-80
2023/09/22 11:48:59;;;;;;;15.60;15.00;;;18.80;99.90;;;;;;4851613;29;20496;-80
2023/09/22 11:51:48;;;;;;;14.80;14.40;;;18.90;99.90;;;;;;4858293;29;20533;-80
2023/09/22 11:54:39;;;;;;;15.03;14.57;;;18.90;99.90;;;;;;4856714;29;20569;-81
2023/09/22 11:57:36;;;;;;;15.40;14.90;;;18.90;99.90;;;;;;4854007;29;20470;-80
2023/09/22 12:00:22;;;;;;;15.10;14.70;;;19.10;99.90;;;;;;4851976;29;20514;-80
2023/09/22 12:03:19;;;;;;;15.00;14.53;;;19.20;99.90;;;;;;4862764;29;20465;-80
2023/09/22 12:06:13;;;;;;;15.00;14.50;;;19.20;99.90;;;;;;4856082;29;20524;-83
2023/09/22 12:09:50;;;;;;;15.30;14.90;;;19.10;99.90;;;;;;4858260;29;20484;-82
2023/09/22 12:13:08;;;;;;;14.70;14.30;;;19.10;99.90;;;;;;4863412;29;20831;-79
2023/09/22 12:19:19;;;;;;;16.53;15.83;;;19.30;99.90;;;;;;4861921;29;20464;-83
2023/09/22 12:22:02;;;;;;;53.47;43.47;;;19.50;99.90;;;;;;4867081;29;20489;-80
2023/09/22 12:24:37;;;;;;;39.47;31.80;;;19.70;99.90;;;;;;4856007;29;20453;-77
2023/09/22 12:27:11;;;;;;;58.50;45.23;;;19.80;99.90;;;;;;4857338;29;20535;-77
2023/09/22 12:29:52;;;;;;;29.53;26.77;;;19.90;99.90;;;;;;4859489;29;20484;-78
2023/09/22 12:32:28;;;;;;;30.97;28.17;;;20.00;99.90;;;;;;4857937;29;20488;-78
2023/09/22 12:35:05;;;;;;;29.03;26.40;;;20.00;99.90;;;;;;4858780;29;20466;-77
2023/09/22 12:37:49;;;;;;;15.40;15.00;;;19.90;99.90;;;;;;4861459;29;20859;-81
2023/09/22 12:41:28;;;;;;;;;;;;;;;;;;;;;
2023/09/22 12:47:30;;;;;;;14.83;14.33;;;19.80;99.90;;;;;;4859171;29;21615;-83
2023/09/22 13:02:20;;;;;;;14.50;14.10;;;19.60;99.90;;;;;;4789223;29;20448;-81
2023/09/22 13:05:01;;;;;;;14.47;13.97;;;19.50;99.90;;;;;;4789048;29;20504;-82
2023/09/22 13:08:04;;;;;;;14.60;14.10;;;19.40;99.90;;;;;;4790621;29;20484;-82
2023/09/22 13:16:08;;;;;;;14.97;14.47;;;19.40;99.90;;;;;;4751547;30;20540;-81
2023/09/22 13:18:36;;;;;;;14.43;14.03;;;19.40;99.90;;;;;;4784603;29;20475;-81
2023/09/22 13:21:12;;;;;;;14.63;14.23;;;19.40;99.90;;;;;;4864203;29;20484;-80
2023/09/22 13:27:30;;;;;;;15.13;14.73;;;19.40;99.90;;;;;;4818634;29;20474;-81
2023/09/22 13:31:05;;;;;;;14.77;14.37;;;19.50;99.90;;;;;;4822304;29;20493;-80
2023/09/22 13:33:56;;;;;;;15.20;14.80;;;19.60;99.90;;;;;;4844161;29;20484;-82
2023/09/22 13:40:17;;;;;;;15.30;14.70;;;19.80;99.90;;;;;;4843122;29;21259;-83
2023/09/22 13:43:16;;;;;;;14.80;14.40;;;19.90;99.90;;;;;;4862223;29;20892;-79
2023/09/22 13:56:47;;;;;;;14.87;14.47;;;19.90;99.90;;;;;;4772014;29;20506;-82
2023/09/22 13:59:15;;;;;;;14.40;14.00;;;19.90;99.90;;;;;;4781077;29;20515;-79
2023/09/22 14:04:32;;;;;;;14.83;14.33;;;19.90;99.90;;;;;;4858277;23;22668;-82
2023/09/22 14:07:04;;;;;;;14.67;14.20;;;20.00;99.90;;;;;;4861879;29;20457;-81
2023/09/22 14:10:23;;;;;;;14.67;14.23;;;19.90;99.90;;;;;;4862552;29;20568;-82
2023/09/22 14:13:32;;;;;;;14.60;14.10;;;20.00;99.90;;;;;;4795837;29;20564;-82
2023/09/22 14:16:32;;;;;;;14.50;14.00;;;19.90;99.90;;;;;;4842357;29;20454;-82
2023/09/22 14:20:00;;;;;;;13.90;13.50;;;19.80;99.90;;;;;;4859438;29;20471;-82
2023/09/22 14:23:02;;;;;;;14.20;13.80;;;19.80;99.90;;;;;;4844140;29;20486;-82
2023/09/22 14:26:02;;;;;;;;;;;;;;;;;;;;;
2023/09/22 14:28:59;;;;;;;14.43;13.90;;;20.00;99.90;;;;;;4831185;29;21090;-79
2023/09/22 14:31:47;;;;;;;13.43;13.13;;;20.20;99.90;;;;;;4840043;29;20486;-80
2023/09/22 14:34:46;;;;;;;13.30;13.00;;;20.10;99.90;;;;;;4862310;29;21017;-80
2023/09/22 14:37:27;;;;;;;13.93;13.53;;;19.90;99.90;;;;;;4838953;29;21002;-79
2023/09/22 14:39:56;;;;;;;13.77;13.37;;;19.90;99.90;;;;;;4837671;29;20450;-82
2023/09/22 14:42:25;;;;;;;13.90;13.30;;;19.90;99.90;;;;;;4839209;29;21010;-78
2023/09/22 14:44:54;;;;;;;13.57;13.07;;;19.90;99.90;;;;;;4833353;29;21375;-85
2023/09/22 14:47:23;;;;;;;13.30;13.00;;;19.90;99.90;;;;;;4829653;29;20581;-82
2023/09/22 14:49:51;;;;;;;13.50;13.20;;;19.80;99.90;;;;;;4839724;29;20518;-80
2023/09/22 14:52:19;;;;;;;13.03;12.73;;;19.70;99.90;;;;;;4844252;29;20573;-82
2023/09/22 14:54:48;;;;;;;13.67;13.27;;;19.80;99.90;;;;;;4835623;29;20561;-81
2023/09/22 14:57:16;;;;;;;14.80;14.20;;;19.90;99.90;;;;;;4838895;29;20462;-80
2023/09/22 14:59:47;;;;;;;13.30;13.00;;;19.90;99.90;;;;;;4862286;29;20499;-80
2023/09/22 15:02:19;;;;;;;13.00;12.70;;;19.70;99.90;;;;;;4838910;29;20547;-79
2023/09/22 15:04:48;;;;;;;13.17;12.87;;;19.60;99.90;;;;;;4838915;29;20534;-79
2023/09/22 15:07:18;;;;;;;13.97;13.47;;;19.60;99.90;;;;;;4838554;29;20466;-81
2023/09/22 15:09:46;;;;;;;13.30;13.00;;;19.70;99.90;;;;;;4835585;29;20501;-80
2023/09/22 15:12:15;;;;;;;12.80;12.50;;;19.60;99.90;;;;;;4838521;29;20474;-81
2023/09/22 15:14:45;;;;;;;13.70;13.37;;;19.60;99.90;;;;;;4836524;29;20469;-82
2023/09/22 15:17:27;;;;;;;13.80;13.30;;;19.70;99.90;;;;;;4841421;29;20462;-82
2023/09/22 15:20:42;;;;;;;13.03;12.83;;;19.70;99.90;;;;;;4843417;29;20458;-79
2023/09/22 15:23:28;;;;;;;13.97;13.27;;;19.60;99.90;;;;;;4840011;29;20476;-83
2023/09/22 15:26:46;;;;;;;13.57;13.17;;;19.60;99.90;;;;;;4833946;29;20465;-80
2023/09/22 15:29:44;;;;;;;13.70;13.20;;;19.70;99.90;;;;;;4835966;29;20502;-83
2023/09/22 15:32:28;;;;;;;16.03;15.23;;;19.70;99.90;;;;;;4840095;29;21066;-76
2023/09/22 15:35:03;;;;;;;15.77;14.87;;;19.80;99.90;;;;;;4834220;29;20505;-78
2023/09/22 15:37:31;;;;;;;18.67;17.53;;;19.70;99.90;;;;;;4835437;29;20458;-76
2023/09/22 15:39:59;;;;;;;14.87;14.40;;;19.80;99.90;;;;;;4834745;29;20454;-78
2023/09/22 15:42:28;;;;;;;13.23;12.93;;;19.70;99.90;;;;;;4838136;29;20486;-82
2023/09/22 15:44:56;;;;;;;12.80;12.50;;;19.70;99.90;;;;;;4837334;29;20520;-81
2023/09/22 15:47:24;;;;;;;13.10;12.80;;;19.70;99.90;;;;;;4834154;29;20534;-80
2023/09/22 15:49:56;;;;;;;13.60;13.10;;;19.70;99.90;;;;;;4836903;29;20500;-81
2023/09/22 15:52:25;;;;;;;13.70;13.20;;;19.70;99.90;;;;;;4834874;29;21008;-79
2023/09/22 15:54:55;;;;;;;13.17;12.87;;;19.70;99.90;;;;;;4837268;29;20462;-82
2023/09/22 15:57:25;;;;;;;13.77;13.27;;;19.60;99.90;;;;;;4837591;29;20450;-79
2023/09/22 15:59:54;;;;;;;13.40;13.10;;;19.60;99.90;;;;;;4836413;29;21080;-79
2023/09/22 16:02:23;;;;;;;12.77;12.47;;;19.50;99.90;;;;;;4838694;29;20568;-82